createdAt,value
2023-02-04T00:02:18.299Z,100531.05
2023-02-04T00:04:47.126Z,100527.02
2023-02-04T00:07:18.601Z,100531.34
2023-02-04T00:09:47.492Z,100526.27
2023-02-04T00:12:16.674Z,100527.48
2023-02-04T00:14:45.464Z,100522.75
2023-02-04T00:17:14.373Z,100518.17
2023-02-04T00:19:43.450Z,100516.05
2023-02-04T00:22:12.360Z,100516.55
2023-02-04T00:24:43.270Z,100514.44
2023-02-04T00:27:12.031Z,100508.14
2023-02-04T00:29:40.854Z,100507.60
2023-02-04T00:32:09.854Z,100508.64
2023-02-04T00:34:38.794Z,100504.76
2023-02-04T00:37:07.736Z,100508.41
2023-02-04T00:39:36.344Z,100503.51
2023-02-04T00:42:08.509Z,100497.73
2023-02-04T00:44:37.979Z,100487.90
2023-02-04T00:47:06.828Z,100484.17
2023-02-04T00:49:35.794Z,100480.33
2023-02-04T00:52:04.968Z,100474.23
2023-02-04T00:54:33.802Z,100472.08
2023-02-04T00:57:03.379Z,100464.86
2023-02-04T00:59:32.220Z,100465.68
2023-02-04T01:02:00.982Z,100458.34
2023-02-04T01:04:31.090Z,100455.50
2023-02-04T01:07:00.042Z,100453.36
2023-02-04T01:09:28.899Z,100450.05
2023-02-04T01:11:57.847Z,100449.80
2023-02-04T01:14:26.655Z,100442.45
2023-02-04T01:16:55.399Z,100444.72
2023-02-04T01:19:24.094Z,100446.10
2023-02-04T01:21:52.839Z,100448.16
2023-02-04T01:24:21.550Z,100448.61
2023-02-04T01:27:08.852Z,100445.14
2023-02-04T01:29:38.224Z,100443.78
2023-02-04T01:32:07.031Z,100441.30
2023-02-04T01:34:35.741Z,100441.41
2023-02-04T01:37:04.407Z,100439.30
2023-02-04T01:39:34.351Z,100434.30
2023-02-04T01:42:04.099Z,100435.73
2023-02-04T01:44:32.995Z,100434.20
2023-02-04T01:47:02.165Z,100428.44
2023-02-04T01:49:31.333Z,100426.70
2023-02-04T01:52:00.315Z,100424.09
2023-02-04T01:54:29.267Z,100420.57
2023-02-04T01:56:58.942Z,100421.96
2023-02-04T01:59:27.896Z,100419.33
2023-02-04T02:01:56.723Z,100416.89
2023-02-04T02:04:33.872Z,100417.77
2023-02-04T02:07:06.927Z,100418.65
2023-02-04T02:09:36.247Z,100418.31
2023-02-04T02:12:08.097Z,100415.21
2023-02-04T02:14:36.915Z,100416.83
2023-02-04T02:17:05.757Z,100415.98
2023-02-04T02:19:38.574Z,100416.34
2023-02-04T02:22:37.948Z,100412.84
2023-02-04T02:25:12.915Z,100409.89
2023-02-04T02:27:42.030Z,100405.95
2023-02-04T02:30:14.244Z,100401.25
2023-02-04T02:32:44.934Z,100395.20
2023-02-04T02:35:15.545Z,100395.59
2023-02-04T02:37:44.519Z,100398.23
2023-02-04T02:40:15.213Z,100396.64
2023-02-04T02:42:48.363Z,100403.15
2023-02-04T02:45:30.266Z,100402.84
2023-02-04T02:48:02.992Z,100400.94
2023-02-04T02:50:33.410Z,100403.61
2023-02-04T02:53:04.445Z,100403.77
2023-02-04T02:55:33.349Z,100400.97
2023-02-04T02:58:05.975Z,100403.81
2023-02-04T03:00:34.971Z,100402.25
2023-02-04T03:03:18.604Z,100398.63
2023-02-04T03:05:52.994Z,100401.16
2023-02-04T03:08:22.650Z,100401.50
2023-02-04T03:10:51.661Z,100397.79
2023-02-04T03:13:21.572Z,100397.66
2023-02-04T03:15:51.514Z,100397.66
2023-02-04T03:18:21.764Z,100397.71
2023-02-04T03:20:52.308Z,100398.46
2023-02-04T03:23:21.572Z,100397.07
2023-02-04T03:25:50.378Z,100399.20
2023-02-04T03:28:19.311Z,100397.29
2023-02-04T03:30:56.057Z,100402.39
2023-02-04T03:33:29.400Z,100401.55
2023-02-04T03:35:59.485Z,100398.23
2023-02-04T03:38:28.477Z,100399.31
2023-02-04T03:40:57.242Z,100396.48
2023-02-04T03:43:26.020Z,100394.41
2023-02-04T03:45:55.255Z,100392.15
2023-02-04T03:48:23.988Z,100390.23
2023-02-04T03:50:52.701Z,100391.86
2023-02-04T03:53:22.420Z,100393.21
2023-02-04T03:55:51.114Z,100388.65
2023-02-04T03:58:19.837Z,100385.39
2023-02-04T04:00:49.046Z,100385.20
2023-02-04T04:03:17.885Z,100389.75
2023-02-04T04:05:46.721Z,100391.16
2023-02-04T04:08:15.473Z,100389.62
2023-02-04T04:10:44.442Z,100386.65
2023-02-04T04:13:13.502Z,100388.91
2023-02-04T04:15:42.560Z,100391.52
2023-02-04T04:18:11.382Z,100391.02
2023-02-04T04:20:39.941Z,100393.83
2023-02-04T04:23:08.687Z,100392.45
2023-02-04T04:25:37.607Z,100391.77
2023-02-04T04:28:06.499Z,100395.27
2023-02-04T04:30:35.229Z,100397.98
2023-02-04T04:33:04.116Z,100398.91
2023-02-04T04:35:32.950Z,100400.98
2023-02-04T04:38:03.183Z,100400.65
2023-02-04T04:40:32.324Z,100400.46
2023-02-04T04:43:01.271Z,100402.61
2023-02-04T04:45:29.971Z,100402.79
2023-02-04T04:47:58.690Z,100402.44
2023-02-04T04:50:27.705Z,100399.44
2023-02-04T04:52:56.382Z,100400.89
2023-02-04T04:55:25.171Z,100400.86
2023-02-04T04:57:54.122Z,100400.00
2023-02-04T05:00:23.200Z,100396.86
2023-02-04T05:02:51.966Z,100392.33
2023-02-04T05:05:20.949Z,100392.88
2023-02-04T05:07:49.948Z,100394.94
2023-02-04T05:10:20.384Z,100393.75
2023-02-04T05:12:49.136Z,100396.44
2023-02-04T05:15:18.069Z,100398.73
2023-02-04T05:17:46.925Z,100399.61
2023-02-04T05:20:15.769Z,100398.23
2023-02-04T05:22:44.638Z,100401.89
2023-02-04T05:25:13.530Z,100404.92
2023-02-04T05:27:43.372Z,100407.02
2023-02-04T05:30:13.567Z,100412.31
2023-02-04T05:32:42.685Z,100415.43
2023-02-04T05:35:11.526Z,100419.95
2023-02-04T05:37:40.353Z,100425.92
2023-02-04T05:40:09.897Z,100429.80
2023-02-04T05:42:38.841Z,100430.01
2023-02-04T05:45:09.986Z,100426.00
2023-02-04T05:47:39.089Z,100431.61
2023-02-04T05:50:08.784Z,100428.29
2023-02-04T05:52:42.772Z,100427.06
2023-02-04T05:55:13.038Z,100435.79
2023-02-04T05:57:42.753Z,100434.91
2023-02-04T06:00:13.694Z,100432.11
2023-02-04T06:02:42.396Z,100431.95
2023-02-04T06:05:11.304Z,100429.52
2023-02-04T06:07:42.439Z,100434.45
2023-02-04T06:10:12.064Z,100432.05
2023-02-04T06:12:40.982Z,100435.01
2023-02-04T06:15:10.430Z,100430.67
2023-02-04T06:17:39.926Z,100426.48
2023-02-04T06:20:09.634Z,100425.77
2023-02-04T06:22:38.429Z,100430.61
2023-02-04T06:25:07.867Z,100432.04
2023-02-04T06:27:38.003Z,100437.98
2023-02-04T06:30:07.346Z,100439.95
2023-02-04T06:32:36.774Z,100443.96
2023-02-04T06:35:07.437Z,100447.83
2023-02-04T06:37:36.261Z,100454.85
2023-02-04T06:40:06.424Z,100458.13
2023-02-04T06:42:35.148Z,100461.52
2023-02-04T06:45:04.934Z,100468.00
2023-02-04T06:47:33.733Z,100472.96
2023-02-04T06:50:02.491Z,100471.13
2023-02-04T06:52:31.317Z,100472.07
2023-02-04T06:55:00.090Z,100476.91
2023-02-04T06:57:28.964Z,100478.06
2023-02-04T06:59:58.312Z,100480.66
2023-02-04T07:02:27.165Z,100476.67
2023-02-04T07:04:55.937Z,100476.90
2023-02-04T07:07:24.712Z,100474.10
2023-02-04T07:09:53.933Z,100475.43
2023-02-04T07:12:24.989Z,100477.42
2023-02-04T07:14:53.826Z,100472.77
2023-02-04T07:17:23.966Z,100471.66
2023-02-04T07:19:53.212Z,100475.55
2023-02-04T07:22:23.556Z,100476.65
2023-02-04T07:24:52.198Z,100475.99
2023-02-04T07:27:20.955Z,100477.46
2023-02-04T07:29:49.694Z,100476.84
2023-02-04T07:32:18.279Z,100479.77
2023-02-04T07:34:48.264Z,100479.69
2023-02-04T07:37:17.038Z,100487.01
2023-02-04T07:39:45.785Z,100486.21
2023-02-04T07:42:14.450Z,100488.16
2023-02-04T07:44:46.280Z,100490.14
2023-02-04T07:47:15.048Z,100491.80
2023-02-04T07:49:43.836Z,100488.42
2023-02-04T07:52:12.552Z,100489.36
2023-02-04T07:54:41.182Z,100483.09
2023-02-04T07:57:09.873Z,100485.99
2023-02-04T07:59:38.702Z,100490.79
2023-02-04T08:02:08.102Z,100493.51
2023-02-04T08:04:38.287Z,100494.77
2023-02-04T08:07:07.338Z,100502.65
2023-02-04T08:09:36.994Z,100506.19
2023-02-04T08:12:06.585Z,100502.34
2023-02-04T08:14:35.380Z,100500.46
2023-02-04T08:17:05.294Z,100505.98
2023-02-04T08:19:36.610Z,100511.12
2023-02-04T08:22:05.363Z,100512.26
2023-02-04T08:24:34.230Z,100510.89
2023-02-04T08:27:03.219Z,100512.86
2023-02-04T08:29:32.100Z,100513.25
2023-02-04T08:32:01.532Z,100514.91
2023-02-04T08:34:31.534Z,100512.13
2023-02-04T08:37:01.970Z,100516.02
2023-02-04T08:39:30.827Z,100515.88
2023-02-04T08:42:00.212Z,100520.83
2023-02-04T08:44:29.538Z,100521.55
2023-02-04T08:46:58.412Z,100523.85
2023-02-04T08:49:27.062Z,100521.25
2023-02-04T08:51:55.927Z,100523.90
2023-02-04T08:54:26.354Z,100526.03
2023-02-04T08:56:55.192Z,100528.67
2023-02-04T08:59:24.408Z,100527.09
2023-02-04T09:01:58.267Z,100526.73
2023-02-04T09:04:28.714Z,100525.51
2023-02-04T09:06:57.525Z,100525.32
2023-02-04T09:09:26.487Z,100530.96
2023-02-04T09:11:55.256Z,100529.73
2023-02-04T09:14:23.987Z,100533.06
2023-02-04T09:16:52.773Z,100531.66
2023-02-04T09:19:25.689Z,100535.54
2023-02-04T09:21:54.665Z,100539.07
2023-02-04T09:24:23.847Z,100537.30
2023-02-04T09:26:52.670Z,100538.02
2023-02-04T09:29:21.608Z,100537.85
2023-02-04T09:31:50.289Z,100534.35
2023-02-04T09:34:19.933Z,100535.08
2023-02-04T09:36:48.691Z,100541.23
2023-02-04T09:39:17.363Z,100544.95
2023-02-04T09:41:46.173Z,100544.41
2023-02-04T09:44:20.316Z,100542.30
2023-02-04T09:46:53.612Z,100542.11
2023-02-04T09:49:23.794Z,100538.94
2023-02-04T09:51:53.389Z,100535.95
2023-02-04T09:54:23.948Z,100531.89
2023-02-04T09:56:53.525Z,100532.42
2023-02-04T09:59:24.452Z,100537.89
2023-02-04T10:02:02.006Z,100539.83
2023-02-04T10:04:31.216Z,100539.48
2023-02-04T10:06:59.967Z,100543.35
2023-02-04T10:09:28.699Z,100543.70
2023-02-04T10:11:57.397Z,100547.05
2023-02-04T10:14:26.097Z,100547.05
2023-02-04T10:16:59.474Z,100548.81
2023-02-04T10:19:31.050Z,100550.41
2023-02-04T10:22:00.465Z,100551.83
2023-02-04T10:24:30.878Z,100553.23
2023-02-04T10:27:12.259Z,100556.91
2023-02-04T10:29:42.455Z,100563.62
2023-02-04T10:32:32.967Z,100567.15
2023-02-04T10:35:03.855Z,100571.38
2023-02-04T10:37:32.577Z,100572.41
2023-02-04T10:40:01.587Z,100574.18
2023-02-04T10:42:32.760Z,100571.53
2023-02-04T10:45:01.572Z,100573.65
2023-02-04T10:47:31.724Z,100572.41
2023-02-04T10:50:17.778Z,100579.11
2023-02-04T10:52:51.692Z,100583.19
2023-02-04T10:55:24.807Z,100586.90
2023-02-04T10:57:53.849Z,100588.33
2023-02-04T11:00:25.877Z,100591.33
2023-02-04T11:03:04.355Z,100596.08
2023-02-04T11:05:35.688Z,100602.95
2023-02-04T11:08:20.925Z,100604.72
2023-02-04T11:11:06.108Z,100610.17
2023-02-04T11:13:57.456Z,100613.71
2023-02-04T11:16:30.553Z,100617.23
2023-02-04T11:19:07.329Z,100622.20
2023-02-04T11:21:35.970Z,100624.83
2023-02-04T11:24:16.489Z,100629.07
2023-02-04T11:27:05.180Z,100632.96
2023-02-04T11:29:39.283Z,100640.90
2023-02-04T11:32:38.550Z,100640.54
2023-02-04T11:35:13.378Z,100641.08
2023-02-04T11:37:43.715Z,100638.78
2023-02-04T11:40:38.284Z,100637.54
2023-02-04T11:43:21.940Z,100638.58
2023-02-04T11:46:13.451Z,100641.73
2023-02-04T11:48:44.100Z,100642.96
2023-02-04T11:51:18.810Z,100638.20
2023-02-04T11:53:52.809Z,100641.20
2023-02-04T11:56:23.337Z,100646.31
2023-02-04T11:58:55.801Z,100651.09
2023-02-04T12:01:32.169Z,100651.11
2023-02-04T12:04:07.026Z,100650.93
2023-02-04T12:06:37.799Z,100653.21
2023-02-04T12:09:22.483Z,100654.79
2023-02-04T12:12:00.166Z,100657.60
2023-02-04T12:14:37.149Z,100663.27
2023-02-04T12:17:20.853Z,100665.73
2023-02-04T12:19:49.491Z,100671.38
2023-02-04T12:22:18.398Z,100675.98
2023-02-04T12:24:47.191Z,100678.98
2023-02-04T12:27:17.134Z,100682.88
2023-02-04T12:29:46.181Z,100689.77
2023-02-04T12:32:15.025Z,100690.15
2023-02-04T12:34:46.927Z,100696.33
2023-02-04T12:37:15.570Z,100698.95
2023-02-04T12:39:47.775Z,100706.91
2023-02-04T12:42:16.405Z,100706.89
2023-02-04T12:44:45.173Z,100711.48
2023-02-04T12:47:13.860Z,100712.71
2023-02-04T12:49:42.733Z,100716.95
2023-02-04T12:52:11.343Z,100717.30
2023-02-04T12:54:40.143Z,100724.18
2023-02-04T12:57:08.831Z,100726.30
2023-02-04T12:59:37.835Z,100728.95
2023-02-04T13:02:06.684Z,100734.59
2023-02-04T13:04:36.571Z,100738.48
2023-02-04T13:07:07.584Z,100741.13
2023-02-04T13:09:37.503Z,100744.83
2023-02-04T13:12:06.545Z,100750.31
2023-02-04T13:14:35.262Z,100754.73
2023-02-04T13:17:03.847Z,100759.48
2023-02-04T13:19:32.735Z,100764.09
2023-02-04T13:22:01.529Z,100770.77
2023-02-04T13:24:30.395Z,100778.72
2023-02-04T13:26:59.299Z,100779.95
2023-02-04T13:29:28.091Z,100788.92
2023-02-04T13:31:56.962Z,100791.92
2023-02-04T13:34:25.819Z,100799.67
2023-02-04T13:36:54.679Z,100805.30
2023-02-04T13:39:23.941Z,100811.77
2023-02-04T13:41:55.736Z,100816.85
2023-02-04T13:44:24.495Z,100825.49
2023-02-04T13:46:53.459Z,100829.73
2023-02-04T13:49:22.296Z,100841.16
2023-02-04T13:51:51.068Z,100845.68
2023-02-04T13:54:19.798Z,100846.98
2023-02-04T13:56:48.488Z,100853.66
2023-02-04T13:59:17.299Z,100855.20
2023-02-04T14:01:46.301Z,100866.06
2023-02-04T14:04:15.088Z,100869.90
2023-02-04T14:06:44.080Z,100875.86
2023-02-04T14:09:13.505Z,100891.31
2023-02-04T14:11:42.202Z,100890.70
2023-02-04T14:14:11.684Z,100902.34
2023-02-04T14:16:40.360Z,100906.72
2023-02-04T14:19:09.701Z,100908.80
2023-02-04T14:21:38.436Z,100913.90
2023-02-04T14:24:07.473Z,100923.52
2023-02-04T14:26:36.049Z,100931.31
2023-02-04T14:29:04.926Z,100933.39
2023-02-04T14:31:33.844Z,100936.88
2023-02-04T14:34:02.680Z,100942.84
2023-02-04T14:36:32.924Z,100943.59
2023-02-04T14:39:02.242Z,100947.29
2023-02-04T14:41:31.526Z,100951.88
2023-02-04T14:44:00.353Z,100957.31
2023-02-04T14:46:29.119Z,100967.54
2023-02-04T14:48:57.807Z,100973.36
2023-02-04T14:51:26.404Z,100976.02
2023-02-04T14:53:55.263Z,100973.18
2023-02-04T14:56:24.236Z,100987.27
2023-02-04T14:58:55.313Z,100987.43
2023-02-04T15:01:28.065Z,100991.67
2023-02-04T15:03:57.121Z,100999.06
2023-02-04T15:06:25.866Z,101006.11
2023-02-04T15:08:54.888Z,101007.13
2023-02-04T15:11:24.065Z,101022.05
2023-02-04T15:13:52.997Z,101026.81
2023-02-04T15:16:22.616Z,101031.93
2023-02-04T15:19:04.257Z,101039.64
2023-02-04T15:21:33.352Z,101049.16
2023-02-04T15:24:02.398Z,101055.45
2023-02-04T15:26:33.305Z,101067.77
2023-02-04T15:29:02.218Z,101072.16
2023-02-04T15:31:48.587Z,101074.27
2023-02-04T15:34:23.251Z,101080.23
2023-02-04T15:36:53.042Z,101093.42
2023-02-04T15:39:22.879Z,101095.04
2023-02-04T15:41:52.772Z,101110.36
2023-02-04T15:44:22.427Z,101113.17
2023-02-04T15:46:52.165Z,101120.20
2023-02-04T15:49:24.154Z,101129.04
2023-02-04T15:51:58.246Z,101129.09
2023-02-04T15:54:29.207Z,101137.93
2023-02-04T15:56:59.016Z,101137.52
2023-02-04T15:59:28.906Z,101146.38
2023-02-04T16:01:59.021Z,101151.73
2023-02-04T16:04:29.092Z,101156.33
2023-02-04T16:06:59.646Z,101166.05
2023-02-04T16:09:32.733Z,101169.13
2023-02-04T16:12:06.826Z,101178.30
2023-02-04T16:14:35.936Z,101186.71
2023-02-04T16:17:07.485Z,101193.25
2023-02-04T16:19:43.399Z,101196.32
2023-02-04T16:22:13.072Z,101198.41
2023-02-04T16:24:45.989Z,101208.08
2023-02-04T16:27:15.277Z,101209.51
2023-02-04T16:29:47.367Z,101212.97
2023-02-04T16:32:16.774Z,101227.51
2023-02-04T16:34:49.369Z,101224.27
2023-02-04T16:37:19.231Z,101224.88
2023-02-04T16:39:49.286Z,101238.34
2023-02-04T16:42:18.786Z,101247.48
2023-02-04T16:44:49.600Z,101246.00
2023-02-04T16:47:19.028Z,101251.05
2023-02-04T16:49:49.387Z,101251.69
2023-02-04T16:52:18.857Z,101254.52
2023-02-04T16:54:48.121Z,101263.33
2023-02-04T16:57:18.810Z,101263.26
2023-02-04T16:59:47.965Z,101277.30
2023-02-04T17:02:19.618Z,101281.21
2023-02-04T17:04:49.310Z,101291.55
2023-02-04T17:07:18.488Z,101292.63
2023-02-04T17:09:47.804Z,101300.19
2023-02-04T17:12:20.758Z,101312.03
2023-02-04T17:14:51.065Z,101316.45
2023-02-04T17:17:21.267Z,101318.09
2023-02-04T17:19:52.899Z,101318.82
2023-02-04T17:22:22.019Z,101324.52
2023-02-04T17:24:54.932Z,101332.56
2023-02-04T17:31:12.600Z,101341.88
2023-02-04T17:33:52.181Z,101342.55
2023-02-04T17:36:23.543Z,101350.41
2023-02-04T17:38:56.089Z,101349.21
2023-02-04T17:41:29.888Z,101356.45
2023-02-04T17:44:00.302Z,101363.96
2023-02-04T17:46:29.847Z,101361.55
2023-02-04T17:49:02.728Z,101369.38
2023-02-04T17:51:33.110Z,101371.19
2023-02-04T17:54:05.153Z,101373.77
2023-02-04T17:56:34.144Z,101378.23
2023-02-04T17:59:02.936Z,101380.02
2023-02-04T18:01:35.015Z,101388.05
2023-02-04T18:04:05.187Z,101386.59
2023-02-04T18:06:37.638Z,101390.02
2023-02-04T18:09:15.767Z,101396.09
2023-02-04T18:11:50.135Z,101398.27
2023-02-04T18:14:28.674Z,101409.46
2023-02-04T18:17:00.711Z,101411.59
2023-02-04T18:19:37.394Z,101419.00
2023-02-04T18:22:18.061Z,101424.97
2023-02-04T18:24:49.095Z,101427.80
2023-02-04T18:27:24.941Z,101435.13
2023-02-04T18:30:01.901Z,101444.05
2023-02-04T18:32:45.622Z,101447.61
2023-02-04T18:35:23.908Z,101459.58
2023-02-04T18:37:53.555Z,101466.75
2023-02-04T18:40:32.879Z,101463.79
2023-02-04T18:43:24.118Z,101472.10
2023-02-04T18:45:54.908Z,101474.98
2023-02-04T18:48:24.014Z,101471.96
2023-02-04T18:50:55.335Z,101480.77
2023-02-04T18:53:28.944Z,101485.63
2023-02-04T18:56:02.092Z,101485.29
2023-02-04T18:58:35.755Z,101488.71
2023-02-04T19:01:28.018Z,101489.14
2023-02-04T19:04:01.252Z,101495.48
2023-02-04T19:06:44.730Z,101501.52
2023-02-04T19:09:33.298Z,101506.91
2023-02-04T19:12:22.634Z,101506.55
2023-02-04T19:14:52.255Z,101510.80
2023-02-04T19:17:30.135Z,101515.89
2023-02-04T19:20:19.485Z,101513.40
2023-02-04T19:22:54.147Z,101517.06
2023-02-04T19:25:42.000Z,101526.20
2023-02-04T19:28:18.170Z,101528.98
2023-02-04T19:30:51.741Z,101529.64
2023-02-04T19:33:29.529Z,101536.67
2023-02-04T19:36:22.277Z,101537.79
2023-02-04T19:39:02.035Z,101535.50
2023-02-04T19:41:53.758Z,101536.17
2023-02-04T19:44:43.955Z,101544.90
2023-02-04T19:47:26.915Z,101549.66
2023-02-04T19:50:15.522Z,101549.02
2023-02-04T19:52:52.646Z,101547.58
2023-02-04T19:55:28.190Z,101555.65
2023-02-04T19:58:11.719Z,101562.00
2023-02-04T20:01:15.929Z,101559.55
2023-02-04T20:03:52.276Z,101560.15
2023-02-04T20:06:26.988Z,101568.53
2023-02-04T20:09:36.401Z,101563.75
2023-02-04T20:12:28.046Z,101569.06
2023-02-04T20:14:58.339Z,101581.83
2023-02-04T20:17:40.114Z,101580.66
2023-02-04T20:20:31.262Z,101575.63
2023-02-04T20:23:29.308Z,101585.45
2023-02-04T20:26:01.008Z,101587.33
2023-02-04T20:28:43.383Z,101584.04
2023-02-04T20:31:39.222Z,101588.52
2023-02-04T20:34:24.179Z,101582.78
2023-02-04T20:36:56.748Z,101594.89
2023-02-04T20:39:40.818Z,101604.79
2023-02-04T20:42:34.696Z,101604.34
2023-02-04T20:45:59.823Z,101594.81
2023-02-04T20:48:37.255Z,101605.23
2023-02-04T20:51:25.188Z,101612.21
2023-02-04T20:54:01.884Z,101611.09
2023-02-04T20:56:37.624Z,101610.48
2023-02-04T20:59:13.056Z,101610.74
2023-02-04T21:01:50.348Z,101622.45
2023-02-04T21:04:23.368Z,101621.42
2023-02-04T21:06:55.870Z,101628.75
2023-02-04T21:09:29.195Z,101625.81
2023-02-04T21:12:05.392Z,101625.89
2023-02-04T21:14:35.167Z,101632.61
2023-02-04T21:17:05.045Z,101640.93
2023-02-04T21:19:35.449Z,101639.16
2023-02-04T21:22:05.737Z,101635.32
2023-02-04T21:24:34.852Z,101641.21
2023-02-04T21:27:05.958Z,101644.52
2023-02-04T21:29:35.299Z,101645.42
2023-02-04T21:32:04.573Z,101644.71
2023-02-04T21:34:33.665Z,101646.91
2023-02-04T21:37:04.381Z,101648.39
2023-02-04T21:39:34.323Z,101651.55
2023-02-04T21:42:12.742Z,101656.13
2023-02-04T21:44:41.945Z,101657.71
2023-02-04T21:47:11.896Z,101657.59
2023-02-04T21:49:43.008Z,101656.42
2023-02-04T21:53:48.667Z,101672.19
2023-02-04T21:56:17.955Z,101663.52
2023-02-04T21:59:38.828Z,101668.29
2023-02-04T22:02:18.701Z,101668.13
2023-02-04T22:05:59.314Z,101670.80
2023-02-04T22:08:31.426Z,101675.35
2023-02-04T22:11:39.001Z,101674.65
2023-02-04T22:14:29.194Z,101674.59
2023-02-04T22:17:14.220Z,101673.81
2023-02-04T22:20:35.138Z,101680.37
2023-02-04T22:23:22.472Z,101681.48
2023-02-04T22:25:53.189Z,101679.85
2023-02-04T22:28:22.975Z,101684.41
2023-02-04T22:30:54.153Z,101688.61
2023-02-04T22:33:33.445Z,101689.11
2023-02-04T22:36:12.074Z,101689.44
2023-02-04T22:38:45.844Z,101691.83
2023-02-04T22:41:25.543Z,101688.19
2023-02-04T22:44:32.826Z,101698.88
2023-02-04T22:47:01.925Z,101700.44
2023-02-04T22:49:32.833Z,101700.59
2023-02-04T22:52:28.752Z,101704.93
2023-02-04T22:55:20.938Z,101720.44
2023-02-04T22:57:55.187Z,101720.80
2023-02-04T23:00:33.363Z,101715.32
2023-02-04T23:03:02.083Z,101717.60
2023-02-04T23:05:31.117Z,101723.55
2023-02-04T23:07:59.913Z,101731.52
2023-02-04T23:10:31.408Z,101733.98
2023-02-04T23:13:00.256Z,101729.17
2023-02-04T23:15:29.041Z,101726.98
2023-02-04T23:17:58.529Z,101729.50
2023-02-04T23:20:27.737Z,101733.77
2023-02-04T23:22:56.494Z,101732.36
2023-02-04T23:25:25.124Z,101732.39
2023-02-04T23:27:53.918Z,101741.29
2023-02-04T23:30:24.440Z,101743.02
2023-02-04T23:32:53.269Z,101734.05
2023-02-04T23:35:22.022Z,101739.30
2023-02-04T23:37:50.652Z,101737.39
2023-02-04T23:40:19.399Z,101738.94
2023-02-04T23:42:48.068Z,101753.79
2023-02-04T23:45:16.971Z,101746.05
2023-02-04T23:47:45.670Z,101748.34
2023-02-04T23:50:14.352Z,101759.79
2023-02-04T23:52:44.112Z,101752.13
2023-02-04T23:55:16.717Z,101759.73
2023-02-04T23:57:49.973Z,101754.63
